createdAt,value
2022-07-30T00:00:39.571Z,4.60
2022-07-30T00:03:06.394Z,4.25
2022-07-30T00:05:33.264Z,5.25
2022-07-30T00:08:00.298Z,2.25
2022-07-30T00:10:27.989Z,6.78
2022-07-30T00:12:54.883Z,2.88
2022-07-30T00:15:21.753Z,4.13
2022-07-30T00:17:49.334Z,4.90
2022-07-30T00:20:16.669Z,2.55
2022-07-30T00:22:45.310Z,4.32
2022-07-30T00:25:12.303Z,3.97
2022-07-30T00:27:39.916Z,7.40
2022-07-30T00:30:07.282Z,3.45
2022-07-30T00:32:34.156Z,3.85
2022-07-30T00:35:00.994Z,8.65
2022-07-30T00:37:27.934Z,5.43
2022-07-30T00:39:54.795Z,3.92
2022-07-30T00:42:26.023Z,4.55
2022-07-30T00:44:53.384Z,5.07
2022-07-30T00:47:20.637Z,5.13
2022-07-30T00:49:47.540Z,3.65
2022-07-30T00:52:14.449Z,4.85
2022-07-30T00:54:41.321Z,5.25
2022-07-30T00:57:08.199Z,4.80
2022-07-30T00:59:36.023Z,7.82
2022-07-30T01:02:03.724Z,3.60
2022-07-30T01:04:31.316Z,5.28
2022-07-30T01:06:58.521Z,3.92
2022-07-30T01:09:25.482Z,4.43
2022-07-30T01:11:52.334Z,4.22
2022-07-30T01:14:19.780Z,5.80
2022-07-30T01:16:46.936Z,2.33
2022-07-30T01:19:45.855Z,3.65
2022-07-30T01:22:40.842Z,5.80
2022-07-30T01:25:21.016Z,5.85
2022-07-30T01:27:58.928Z,4.03
2022-07-30T01:30:30.294Z,6.60
2022-07-30T01:32:59.302Z,3.75
2022-07-30T01:35:28.478Z,4.78
2022-07-30T01:37:58.229Z,4.57
2022-07-30T01:40:27.079Z,8.23
2022-07-30T01:42:55.463Z,6.93
2022-07-30T01:45:24.741Z,6.50
2022-07-30T01:47:58.009Z,3.53
2022-07-30T01:50:25.757Z,6.68
2022-07-30T01:52:54.263Z,3.80
2022-07-30T01:55:28.295Z,7.30
2022-07-30T01:57:58.521Z,3.85
2022-07-30T02:00:28.542Z,4.30
2022-07-30T02:02:55.428Z,5.47
2022-07-30T02:05:22.490Z,3.78
2022-07-30T02:07:52.366Z,7.10
2022-07-30T02:10:41.605Z,5.43
2022-07-30T02:13:10.958Z,8.57
2022-07-30T02:15:55.108Z,8.15
2022-07-30T02:18:31.593Z,8.18
2022-07-30T02:21:07.339Z,5.07
2022-07-30T02:23:44.778Z,7.47
2022-07-30T02:26:18.815Z,4.28
2022-07-30T02:28:50.241Z,6.95
2022-07-30T02:31:21.110Z,5.80
2022-07-30T02:33:58.231Z,3.13
2022-07-30T02:36:26.995Z,6.40
2022-07-30T02:38:56.392Z,5.97
2022-07-30T02:41:27.403Z,5.60
2022-07-30T02:43:55.980Z,4.93
2022-07-30T02:46:24.840Z,7.20
2022-07-30T02:48:55.235Z,7.80
2022-07-30T02:51:23.059Z,6.32
2022-07-30T02:53:55.937Z,4.43
2022-07-30T02:56:23.315Z,6.20
2022-07-30T02:58:53.378Z,3.97
2022-07-30T03:01:23.390Z,6.00
2022-07-30T03:03:55.460Z,8.82
2022-07-30T03:06:25.174Z,5.25
2022-07-30T03:08:53.732Z,5.00
2022-07-30T03:11:22.036Z,8.88
2022-07-30T03:13:53.747Z,7.90
2022-07-30T03:16:23.361Z,5.53
2022-07-30T03:18:50.453Z,8.18
2022-07-30T03:21:20.437Z,7.03
2022-07-30T03:23:55.106Z,7.35
2022-07-30T03:26:23.199Z,7.00
2022-07-30T03:28:51.074Z,7.15
2022-07-30T03:31:18.737Z,5.00
2022-07-30T03:33:47.125Z,5.18
2022-07-30T03:36:15.513Z,7.43
2022-07-30T03:38:43.415Z,5.50
2022-07-30T03:41:14.066Z,7.68
2022-07-30T03:43:41.963Z,6.18
2022-07-30T03:46:11.228Z,6.50
2022-07-30T03:48:39.950Z,6.57
2022-07-30T03:51:10.356Z,8.30
2022-07-30T03:53:37.969Z,9.27
2022-07-30T03:56:05.137Z,9.82
2022-07-30T03:58:36.035Z,10.32
2022-07-30T04:01:03.305Z,9.13
2022-07-30T04:03:32.709Z,7.45
2022-07-30T04:06:00.251Z,10.02
2022-07-30T04:08:28.584Z,8.50
2022-07-30T04:10:55.802Z,12.88
2022-07-30T04:13:23.084Z,9.10
2022-07-30T04:16:40.921Z,9.77
2022-07-30T04:19:00.783Z,11.55
2022-07-30T04:21:29.033Z,14.65
2022-07-30T04:24:04.005Z,9.95
2022-07-30T04:26:34.122Z,11.02
2022-07-30T04:29:02.261Z,12.38
2022-07-30T04:31:30.189Z,11.32
2022-07-30T04:34:02.754Z,9.90
2022-07-30T04:36:33.037Z,12.57
2022-07-30T04:39:01.249Z,10.45
2022-07-30T04:41:28.318Z,9.88
2022-07-30T04:44:03.625Z,10.55
2022-07-30T04:46:30.634Z,11.10
2022-07-30T04:48:57.694Z,10.38
2022-07-30T04:51:33.119Z,9.43
2022-07-30T04:54:02.227Z,16.00
2022-07-30T04:56:31.217Z,12.60
2022-07-30T04:58:58.570Z,16.25
2022-07-30T05:01:39.374Z,13.70
2022-07-30T05:04:09.900Z,14.45
2022-07-30T05:06:38.143Z,9.13
2022-07-30T05:09:05.092Z,16.33
2022-07-30T05:11:32.071Z,12.00
2022-07-30T05:13:58.981Z,14.02
2022-07-30T05:16:26.145Z,13.93
2022-07-30T05:18:53.250Z,12.60
2022-07-30T05:21:20.029Z,10.30
2022-07-30T05:23:50.444Z,14.60
2022-07-30T05:26:21.842Z,11.00
2022-07-30T05:28:56.609Z,12.95
2022-07-30T05:31:25.145Z,16.98
2022-07-30T05:33:52.932Z,13.73
2022-07-30T05:36:20.710Z,11.30
2022-07-30T05:38:48.227Z,11.43
2022-07-30T05:41:18.293Z,12.63
2022-07-30T05:43:58.816Z,12.18
2022-07-30T05:46:25.652Z,13.68
2022-07-30T05:48:52.708Z,13.73
2022-07-30T05:51:20.996Z,10.02
2022-07-30T05:53:48.105Z,12.52
2022-07-30T05:56:15.060Z,10.93
2022-07-30T05:58:41.961Z,9.63
2022-07-30T06:01:08.906Z,12.32
2022-07-30T06:03:35.838Z,11.48
2022-07-30T06:06:05.823Z,9.95
2022-07-30T06:08:33.737Z,10.50
2022-07-30T06:11:00.537Z,7.57
2022-07-30T06:13:27.437Z,8.65
2022-07-30T06:15:54.711Z,10.43
2022-07-30T06:18:23.039Z,11.00
2022-07-30T06:20:52.277Z,12.48
2022-07-30T06:23:19.712Z,8.20
2022-07-30T06:25:48.559Z,9.18
2022-07-30T06:28:36.538Z,8.07
2022-07-30T06:31:03.709Z,9.45
2022-07-30T06:33:30.682Z,11.07
2022-07-30T06:35:57.719Z,9.80
2022-07-30T06:38:24.861Z,8.40
2022-07-30T06:40:51.741Z,10.25
2022-07-30T06:43:19.715Z,7.15
2022-07-30T06:45:46.504Z,9.05
2022-07-30T06:48:13.389Z,10.23
2022-07-30T06:50:41.963Z,9.02
2022-07-30T06:53:08.925Z,6.03
2022-07-30T06:55:35.850Z,7.38
2022-07-30T06:58:02.709Z,11.50
2022-07-30T07:00:29.684Z,7.65
2022-07-30T07:02:56.635Z,9.55
2022-07-30T07:05:23.946Z,9.93
2022-07-30T07:07:58.597Z,8.60
2022-07-30T07:10:26.086Z,8.20
2022-07-30T07:12:53.098Z,9.27
2022-07-30T07:15:22.458Z,6.43
2022-07-30T07:18:03.484Z,7.70
2022-07-30T07:20:30.319Z,6.38
2022-07-30T07:22:57.591Z,9.35
2022-07-30T07:25:24.863Z,9.88
2022-07-30T07:28:10.947Z,14.27
2022-07-30T07:30:38.972Z,5.35
2022-07-30T07:33:05.819Z,10.88
2022-07-30T07:35:48.378Z,5.03
2022-07-30T07:38:17.958Z,9.27
2022-07-30T07:40:45.020Z,7.28
2022-07-30T07:43:11.845Z,4.80
2022-07-30T07:45:39.525Z,4.60
2022-07-30T07:48:06.596Z,7.10
2022-07-30T07:50:33.764Z,6.85
2022-07-30T07:53:00.895Z,3.50
2022-07-30T07:55:27.943Z,5.53
2022-07-30T07:57:57.959Z,4.18
2022-07-30T08:00:24.843Z,4.70
2022-07-30T08:02:51.817Z,2.30
2022-07-30T08:05:18.868Z,5.40
2022-07-30T08:07:46.144Z,5.45
2022-07-30T08:10:15.239Z,7.75
2022-07-30T08:12:42.735Z,4.20
2022-07-30T08:15:10.977Z,5.47
2022-07-30T08:17:46.402Z,3.42
2022-07-30T08:20:15.179Z,4.50
2022-07-30T08:22:42.107Z,3.65
2022-07-30T08:25:09.911Z,2.50
2022-07-30T08:27:37.102Z,5.50
2022-07-30T08:30:05.758Z,3.58
2022-07-30T08:32:32.699Z,3.72
2022-07-30T08:34:59.543Z,5.18
2022-07-30T08:37:26.736Z,4.53
2022-07-30T08:39:53.545Z,3.65
2022-07-30T08:42:20.448Z,2.88
2022-07-30T08:44:47.367Z,2.78
2022-07-30T08:47:18.841Z,1.60
2022-07-30T08:49:49.187Z,3.63
2022-07-30T08:52:17.603Z,2.65
2022-07-30T08:54:44.862Z,2.92
2022-07-30T08:57:11.844Z,2.08
2022-07-30T09:00:00.157Z,1.27
2022-07-30T09:02:27.969Z,2.58
2022-07-30T09:04:56.479Z,1.35
2022-07-30T09:07:23.655Z,2.13
2022-07-30T09:09:50.793Z,2.65
2022-07-30T09:12:46.915Z,1.80
2022-07-30T09:15:20.448Z,4.47
2022-07-30T09:17:52.204Z,5.22
2022-07-30T09:20:20.789Z,1.77
2022-07-30T09:22:54.856Z,1.20
2022-07-30T09:25:38.336Z,1.63
2022-07-30T09:28:15.516Z,2.60
2022-07-30T09:30:55.269Z,1.70
2022-07-30T09:33:40.323Z,2.40
2022-07-30T09:36:09.946Z,1.15
2022-07-30T09:38:47.949Z,2.55
2022-07-30T09:41:38.294Z,1.50
2022-07-30T09:44:06.518Z,5.07
2022-07-30T09:46:52.783Z,3.60
2022-07-30T09:49:27.588Z,1.58
2022-07-30T09:51:57.501Z,3.55
2022-07-30T09:54:26.264Z,1.95
2022-07-30T09:57:22.759Z,1.80
2022-07-30T09:59:52.985Z,3.60
2022-07-30T10:02:20.676Z,2.47
2022-07-30T10:04:48.510Z,0.98
2022-07-30T10:07:24.811Z,4.88
2022-07-30T10:09:54.379Z,2.13
2022-07-30T10:12:25.689Z,1.17
2022-07-30T10:14:54.928Z,3.13
2022-07-30T10:17:22.574Z,4.72
2022-07-30T10:19:49.596Z,3.00
2022-07-30T10:22:17.302Z,2.00
2022-07-30T10:24:46.086Z,4.28
2022-07-30T10:27:13.822Z,2.53
2022-07-30T10:29:42.813Z,1.02
2022-07-30T10:32:18.434Z,2.40
2022-07-30T10:34:58.810Z,1.45
2022-07-30T10:37:28.250Z,3.67
2022-07-30T10:40:19.990Z,2.35
2022-07-30T10:43:16.043Z,3.83
2022-07-30T10:45:47.508Z,6.78
2022-07-30T10:48:19.984Z,2.22
2022-07-30T10:50:57.423Z,3.03
2022-07-30T10:53:40.031Z,2.33
2022-07-30T10:56:25.758Z,1.52
2022-07-30T10:59:10.695Z,1.88
2022-07-30T11:01:53.565Z,3.30
2022-07-30T11:04:25.861Z,1.92
2022-07-30T11:07:30.201Z,3.50
2022-07-30T11:10:08.897Z,1.95
2022-07-30T11:12:42.297Z,1.73
2022-07-30T11:15:18.944Z,2.38
2022-07-30T11:18:12.299Z,1.50
2022-07-30T11:20:40.171Z,1.35
2022-07-30T11:23:19.177Z,5.35
2022-07-30T11:25:51.767Z,0.80
2022-07-30T11:28:34.821Z,5.13
2022-07-30T11:31:02.412Z,6.97
2022-07-30T11:33:37.578Z,5.03
2022-07-30T11:36:12.138Z,12.93
2022-07-30T11:38:57.959Z,6.32
2022-07-30T11:41:28.174Z,4.93
2022-07-30T11:44:30.199Z,2.55
2022-07-30T11:46:57.174Z,4.68
2022-07-30T11:49:24.248Z,1.70
2022-07-30T11:51:51.297Z,1.08
2022-07-30T11:54:18.771Z,3.00
2022-07-30T11:56:55.712Z,1.52
2022-07-30T11:59:22.938Z,1.13
2022-07-30T12:01:56.129Z,2.90
2022-07-30T12:04:24.564Z,2.53
2022-07-30T12:06:51.659Z,5.30
2022-07-30T12:09:29.294Z,1.67
2022-07-30T12:11:57.441Z,3.25
2022-07-30T12:14:24.538Z,4.70
2022-07-30T12:16:53.241Z,2.45
2022-07-30T12:19:20.305Z,1.75
2022-07-30T12:21:50.993Z,1.80
2022-07-30T12:24:25.372Z,2.67
2022-07-30T12:26:52.294Z,1.42
2022-07-30T12:29:19.462Z,3.28
2022-07-30T12:31:47.019Z,1.30
2022-07-30T12:34:26.213Z,2.55
2022-07-30T12:36:54.055Z,2.45
2022-07-30T12:39:25.733Z,0.82
2022-07-30T12:41:56.365Z,0.70
2022-07-30T12:44:42.644Z,1.00
2022-07-30T12:47:27.630Z,0.82
2022-07-30T12:49:56.953Z,0.52
2022-07-30T12:52:31.407Z,2.72
2022-07-30T12:55:06.100Z,3.03
2022-07-30T12:58:01.746Z,1.90
2022-07-30T13:00:33.925Z,1.85
2022-07-30T13:03:00.858Z,2.90
2022-07-30T13:05:50.507Z,1.42
2022-07-30T13:08:18.236Z,1.75
2022-07-30T13:11:14.617Z,0.65
2022-07-30T13:13:41.941Z,1.20
2022-07-30T13:16:08.949Z,1.38
2022-07-30T13:18:36.805Z,1.08
2022-07-30T13:21:05.536Z,1.88
2022-07-30T13:23:32.644Z,0.77
2022-07-30T13:25:59.694Z,1.55
2022-07-30T13:28:26.926Z,1.95
2022-07-30T13:30:53.950Z,1.45
2022-07-30T13:33:20.801Z,3.53
2022-07-30T13:35:47.645Z,1.05
2022-07-30T13:38:15.799Z,2.08
2022-07-30T13:40:42.709Z,2.45
2022-07-30T13:43:09.600Z,2.08
2022-07-30T13:45:37.160Z,1.88
2022-07-30T13:48:04.461Z,1.80
2022-07-30T13:50:31.329Z,3.92
2022-07-30T13:53:02.035Z,0.85
2022-07-30T13:55:30.049Z,1.35
2022-07-30T13:57:57.489Z,4.28
2022-07-30T14:00:24.946Z,0.50
2022-07-30T14:02:51.927Z,4.53
2022-07-30T14:05:18.771Z,2.95
2022-07-30T14:07:45.756Z,0.90
2022-07-30T14:10:12.709Z,3.15
2022-07-30T14:12:40.229Z,1.13
2022-07-30T14:15:09.511Z,3.35
2022-07-30T14:17:36.640Z,1.15
2022-07-30T14:20:04.515Z,3.42
2022-07-30T14:22:31.391Z,2.00
2022-07-30T14:24:58.276Z,1.20
2022-07-30T14:27:25.108Z,1.58
2022-07-30T14:29:52.014Z,2.28
2022-07-30T14:32:18.914Z,1.88
2022-07-30T14:34:49.488Z,4.13
2022-07-30T14:37:17.254Z,1.42
2022-07-30T14:39:44.410Z,2.13
2022-07-30T14:42:18.212Z,2.35
2022-07-30T14:44:45.003Z,0.43
2022-07-30T14:47:13.894Z,0.80
2022-07-30T14:49:40.938Z,0.70
2022-07-30T14:52:15.782Z,0.93
2022-07-30T14:54:42.684Z,1.95
2022-07-30T14:57:10.288Z,2.90
2022-07-30T14:59:37.276Z,1.25
2022-07-30T15:02:13.646Z,0.95
2022-07-30T15:04:40.497Z,1.42
2022-07-30T15:07:07.311Z,1.85
2022-07-30T15:09:34.375Z,0.40
2022-07-30T15:12:11.088Z,1.52
2022-07-30T15:14:41.948Z,5.88
2022-07-30T15:17:10.564Z,2.85
2022-07-30T15:19:37.567Z,0.50
2022-07-30T15:22:17.410Z,2.45
2022-07-30T15:24:44.293Z,1.38
2022-07-30T15:27:11.392Z,0.50
2022-07-30T15:29:38.353Z,0.70
2022-07-30T15:32:16.641Z,0.55
2022-07-30T15:34:43.911Z,2.00
2022-07-30T15:37:10.856Z,0.68
2022-07-30T15:39:37.711Z,1.48
2022-07-30T15:42:15.808Z,0.77
2022-07-30T15:44:48.734Z,1.10
2022-07-30T15:47:16.173Z,0.93
2022-07-30T15:49:43.116Z,0.55
2022-07-30T15:52:16.228Z,1.00
2022-07-30T15:54:43.135Z,0.95
2022-07-30T15:57:09.948Z,1.98
2022-07-30T15:59:36.807Z,1.10
2022-07-30T16:02:15.271Z,0.98
2022-07-30T16:04:42.076Z,0.90
2022-07-30T16:07:15.020Z,1.55
2022-07-30T16:09:41.935Z,1.65
2022-07-30T16:12:16.511Z,0.47
2022-07-30T16:14:43.397Z,1.38
2022-07-30T16:17:14.074Z,0.47
2022-07-30T16:19:44.795Z,0.57
2022-07-30T16:22:21.590Z,0.35
2022-07-30T16:24:51.339Z,0.50
2022-07-30T16:27:18.801Z,1.42
2022-07-30T16:29:45.668Z,0.50
2022-07-30T16:32:16.351Z,0.40
2022-07-30T16:34:43.210Z,1.33
2022-07-30T16:37:10.157Z,1.08
2022-07-30T16:39:37.006Z,1.00
2022-07-30T16:42:16.536Z,0.60
2022-07-30T16:44:43.538Z,0.85
2022-07-30T16:47:13.686Z,0.60
2022-07-30T16:49:40.940Z,2.92
2022-07-30T16:52:16.083Z,0.85
2022-07-30T16:54:42.990Z,1.00
2022-07-30T16:57:10.976Z,0.70
2022-07-30T16:59:38.151Z,1.23
2022-07-30T17:02:12.846Z,2.00
2022-07-30T17:04:39.709Z,0.52
2022-07-30T17:07:06.607Z,0.73
2022-07-30T17:09:36.650Z,1.08
2022-07-30T17:12:13.027Z,0.75
2022-07-30T17:14:42.638Z,0.50
2022-07-30T17:17:14.231Z,0.57
2022-07-30T17:19:42.426Z,0.88
2022-07-30T17:22:13.547Z,0.95
2022-07-30T17:24:41.272Z,1.02
2022-07-30T17:27:08.276Z,1.08
2022-07-30T17:29:35.100Z,0.70
2022-07-30T17:32:16.869Z,1.30
2022-07-30T17:34:43.779Z,2.03
2022-07-30T17:37:10.648Z,1.55
2022-07-30T17:40:19.146Z,1.30
2022-07-30T17:42:26.359Z,3.60
2022-07-30T17:44:53.246Z,1.67
2022-07-30T17:47:20.139Z,2.83
2022-07-30T17:49:47.447Z,0.93
2022-07-30T17:52:14.440Z,0.88
2022-07-30T17:54:41.496Z,2.20
2022-07-30T17:57:08.511Z,2.00
2022-07-30T17:59:35.475Z,2.55
2022-07-30T18:02:11.288Z,2.10
2022-07-30T18:04:38.114Z,1.23
2022-07-30T18:07:05.928Z,1.48
2022-07-30T18:09:39.550Z,1.30
2022-07-30T18:12:12.717Z,1.60
2022-07-30T18:17:10.029Z,1.80
2022-07-30T18:19:39.408Z,0.85
2022-07-30T18:22:14.692Z,1.98
2022-07-30T18:24:43.919Z,2.25
2022-07-30T18:27:12.700Z,0.93
2022-07-30T18:29:39.570Z,2.33
2022-07-30T18:32:11.201Z,1.30
2022-07-30T18:34:38.096Z,0.80
2022-07-30T18:37:04.974Z,2.63
2022-07-30T18:39:31.989Z,2.35
2022-07-30T18:41:58.874Z,4.30
2022-07-30T18:44:25.703Z,1.88
2022-07-30T18:46:52.542Z,2.35
2022-07-30T18:49:36.089Z,5.03
2022-07-30T18:52:11.290Z,1.38
2022-07-30T18:54:38.634Z,1.58
2022-07-30T18:57:08.217Z,3.67
2022-07-30T18:59:38.480Z,1.67
2022-07-30T19:02:14.473Z,1.25
2022-07-30T19:04:41.700Z,3.72
2022-07-30T19:07:08.807Z,2.35
2022-07-30T19:09:35.973Z,2.40
2022-07-30T19:12:13.611Z,0.95
2022-07-30T19:14:40.894Z,1.50
2022-07-30T19:17:13.777Z,2.28
2022-07-30T19:19:41.736Z,2.75
2022-07-30T19:22:29.866Z,2.38
2022-07-30T19:24:57.258Z,4.40
2022-07-30T19:27:24.247Z,2.30
2022-07-30T19:29:51.503Z,1.45
2022-07-30T19:32:20.811Z,3.00
2022-07-30T19:34:47.879Z,2.83
2022-07-30T19:37:15.207Z,1.20
2022-07-30T19:40:05.355Z,2.20
2022-07-30T19:42:29.435Z,3.78
2022-07-30T19:44:57.969Z,1.65
2022-07-30T19:47:28.019Z,1.10
2022-07-30T19:49:55.920Z,3.17
2022-07-30T19:52:25.598Z,1.80
2022-07-30T19:54:53.440Z,3.03
2022-07-30T19:57:20.786Z,1.95
2022-07-30T20:00:00.179Z,2.80
2022-07-30T20:02:35.857Z,1.65
2022-07-30T20:05:06.127Z,6.35
2022-07-30T20:07:39.562Z,2.03
2022-07-30T20:10:08.794Z,0.80
2022-07-30T20:12:35.673Z,2.40
2022-07-30T20:15:02.486Z,1.65
2022-07-30T20:17:30.508Z,1.80
2022-07-30T20:20:02.289Z,1.95
2022-07-30T20:22:29.508Z,2.20
2022-07-30T20:24:56.909Z,3.83
2022-07-30T20:27:36.598Z,2.67
2022-07-30T20:30:11.402Z,0.90
2022-07-30T20:32:43.530Z,1.10
2022-07-30T20:35:13.693Z,2.35
2022-07-30T20:37:54.999Z,3.25
2022-07-30T20:42:50.911Z,1.17
2022-07-30T20:45:17.728Z,5.65
2022-07-30T20:47:52.905Z,4.50
2022-07-30T20:50:19.820Z,2.17
2022-07-30T20:52:57.936Z,1.90
2022-07-30T20:55:24.777Z,2.25
2022-07-30T20:58:00.338Z,2.38
2022-07-30T21:00:36.910Z,2.58
2022-07-30T21:03:05.667Z,2.42
2022-07-30T21:05:32.563Z,4.57
2022-07-30T21:07:59.375Z,1.25
2022-07-30T21:10:27.707Z,1.88
2022-07-30T21:12:58.442Z,2.63
2022-07-30T21:15:31.646Z,2.28
2022-07-30T21:17:59.841Z,1.40
2022-07-30T21:20:29.612Z,3.15
2022-07-30T21:23:02.568Z,1.50
2022-07-30T21:25:32.591Z,4.63
2022-07-30T21:28:02.547Z,1.35
2022-07-30T21:30:30.737Z,1.80
2022-07-30T21:32:57.654Z,1.30
2022-07-30T21:35:24.974Z,6.15
2022-07-30T21:37:58.743Z,3.30
2022-07-30T21:40:25.567Z,2.20
2022-07-30T21:42:52.423Z,3.50
2022-07-30T21:45:19.811Z,3.33
2022-07-30T21:47:48.223Z,2.03
2022-07-30T21:50:15.992Z,5.30
2022-07-30T21:52:43.830Z,1.52
2022-07-30T21:55:13.438Z,2.30
2022-07-30T21:57:40.915Z,3.45
2022-07-30T22:00:15.092Z,1.48
2022-07-30T22:02:53.124Z,2.85
2022-07-30T22:05:22.076Z,2.70
2022-07-30T22:07:50.483Z,2.30
2022-07-30T22:10:21.455Z,3.15
2022-07-30T22:12:48.893Z,4.68
2022-07-30T22:15:17.970Z,3.65
2022-07-30T22:17:58.328Z,2.92
2022-07-30T22:20:26.256Z,3.10
2022-07-30T22:22:55.191Z,2.38
2022-07-30T22:25:22.261Z,2.83
2022-07-30T22:27:56.170Z,0.98
2022-07-30T22:30:27.017Z,2.75
2022-07-30T22:32:55.091Z,1.63
2022-07-30T22:35:32.017Z,3.92
2022-07-30T22:38:01.297Z,3.95
2022-07-30T22:40:28.105Z,2.67
2022-07-30T22:42:54.897Z,3.78
2022-07-30T22:45:46.941Z,4.53
2022-07-30T22:48:10.282Z,2.15
2022-07-30T22:50:40.610Z,2.15
2022-07-30T22:53:23.538Z,4.38
2022-07-30T22:55:55.154Z,2.13
2022-07-30T22:58:26.357Z,2.58
2022-07-30T23:00:53.587Z,2.13
2022-07-30T23:03:20.519Z,1.85
2022-07-30T23:05:56.536Z,1.75
2022-07-30T23:08:30.057Z,1.63
2022-07-30T23:10:57.344Z,1.98
2022-07-30T23:13:24.266Z,1.10
2022-07-30T23:15:51.157Z,1.80
2022-07-30T23:18:17.946Z,1.48
2022-07-30T23:20:44.805Z,6.53
2022-07-30T23:23:11.765Z,3.90
2022-07-30T23:25:39.362Z,2.38
2022-07-30T23:28:06.715Z,2.30
2022-07-30T23:30:34.437Z,1.83
2022-07-30T23:33:01.661Z,1.08
2022-07-30T23:35:28.515Z,1.50
2022-07-30T23:37:55.374Z,2.05
2022-07-30T23:40:22.651Z,2.90
2022-07-30T23:42:51.097Z,2.50
2022-07-30T23:45:18.829Z,1.35
2022-07-30T23:47:54.590Z,2.08
2022-07-30T23:50:29.859Z,2.10
2022-07-30T23:52:56.836Z,1.58
2022-07-30T23:55:23.862Z,1.88
2022-07-30T23:57:50.808Z,2.65
